Valburg, Netherlands
Current Conditions -  °F | °C
As of 4:25 AM on Tuesday 21 Oct 2014 (Local Time) from EHDL Reporting Station
Overcast Overcast  
Wind Chill: 54°   Ceiling: 7800
Heat Index: 54°   Visibility: 6mi
Dew Point: 52°   Wind: 12mph
Humidity: 94%   Direction: 210°SSW
Pressure: 29.8"   Gusts: NA
Location:  51.91°N, 5.79°E
Report Text: EHDL 210225Z AUTO 21010KT 9999 FEW009 SCT011 OVC078 12/11 Q1009 GRN
Loading
Personal Weather Stations






























Interactive Weather Map
Tropical Storm Tracking
New forecast layout! Learn more

10-Day Weather Forecast

Advertisements
Track Severe Weather on mobile